Time;durP1;ratioP1;P1;durP2;ratioP2;P2;SDS_P1;SDS_P2;PMS_P1;PMS_P2;Temp;Humidity;BMP_temperature;BMP_pressure;BME280_temperature;BME280_humidity;BME280_pressure;Samples;Min_cycle;Max_cycle;Signal;HPM_P1;HPM_P2
2022/12/31 00:01:53;;;;;;;0.00;0.00;;;12.10;99.90;;;;;;5141360;27;20505;-81
2022/12/31 00:04:19;;;;;;;2.15;0.55;;;12.20;99.90;;;;;;5160289;27;20038;-81
2022/12/31 00:06:45;;;;;;;0.77;0.77;;;12.20;99.90;;;;;;5159840;27;20042;-80
2022/12/31 00:09:11;;;;;;;0.00;0.00;;;12.20;99.90;;;;;;5160349;27;20046;-81
2022/12/31 00:11:37;;;;;;;0.00;0.00;;;12.10;99.90;;;;;;5159676;27;20042;-80
2022/12/31 00:14:03;;;;;;;0.00;0.00;;;12.30;99.90;;;;;;5160082;27;20134;-81
2022/12/31 00:16:36;;;;;;;0.00;0.00;;;12.10;99.90;;;;;;5159514;27;20039;-81
2022/12/31 00:19:03;;;;;;;0.43;0.43;;;12.60;99.90;;;;;;5159043;27;20046;-81
2022/12/31 00:21:30;;;;;;;0.00;0.00;;;12.30;99.90;;;;;;5160101;27;20046;-81
2022/12/31 00:23:57;;;;;;;6.32;1.02;;;12.20;99.90;;;;;;5160505;27;20053;-81
2022/12/31 00:26:26;;;;;;;0.77;0.77;;;12.20;99.90;;;;;;5159372;27;20071;-81
2022/12/31 00:28:53;;;;;;;0.50;0.25;;;12.10;99.90;;;;;;5159563;27;20039;-80
2022/12/31 00:31:27;;;;;;;0.22;0.15;;;12.10;99.90;;;;;;5159773;27;20050;-80
2022/12/31 00:33:53;;;;;;;0.00;0.00;;;12.30;99.90;;;;;;5156237;27;20042;-81
2022/12/31 00:36:28;;;;;;;0.00;0.00;;;12.00;99.90;;;;;;5159951;27;20035;-81
2022/12/31 00:38:55;;;;;;;0.00;0.00;;;11.90;99.90;;;;;;5156478;27;20038;-81
2022/12/31 00:41:22;;;;;;;0.13;0.10;;;11.80;99.90;;;;;;5158746;27;20116;-81
2022/12/31 00:43:47;;;;;;;0.73;0.45;;;11.80;99.90;;;;;;5158131;27;20050;-81
2022/12/31 00:46:14;;;;;;;0.00;0.00;;;11.70;99.90;;;;;;5158369;27;20063;-80
2022/12/31 00:48:40;;;;;;;0.10;0.10;;;11.70;99.90;;;;;;5158746;27;20074;-81
2022/12/31 00:51:08;;;;;;;0.00;0.00;;;12.00;99.90;;;;;;5160401;27;20035;-81
2022/12/31 00:53:34;;;;;;;0.10;0.10;;;11.70;99.90;;;;;;5159842;27;20035;-80
2022/12/31 00:56:15;;;;;;;0.30;0.28;;;11.70;99.90;;;;;;5161823;27;20095;-81
2022/12/31 00:58:41;;;;;;;0.45;0.30;;;11.70;99.90;;;;;;5161148;27;20038;-81
2022/12/31 01:01:12;;;;;;;0.00;0.00;;;11.70;99.90;;;;;;5162496;27;20046;-81
2022/12/31 01:03:38;;;;;;;0.10;0.10;;;11.70;99.90;;;;;;5162820;27;20410;-80
2022/12/31 01:06:04;;;;;;;0.38;0.38;;;11.80;99.90;;;;;;5162510;27;20031;-80
2022/12/31 01:08:29;;;;;;;1.75;0.45;;;11.70;99.90;;;;;;5161967;27;20442;-80
2022/12/31 01:13:39;;;;;;;0.10;0.10;;;11.70;99.90;;;;;;5162764;27;20050;-81
2022/12/31 01:16:13;;;;;;;0.10;0.10;;;11.80;99.90;;;;;;5161489;27;20035;-80
2022/12/31 01:18:39;;;;;;;0.00;0.00;;;11.80;99.90;;;;;;5160600;27;20374;-80
2022/12/31 01:21:08;;;;;;;1.13;0.15;;;11.80;99.90;;;;;;5161951;27;20059;-81
2022/12/31 01:23:34;;;;;;;0.55;0.38;;;11.80;99.90;;;;;;5162218;27;20428;-80
2022/12/31 01:26:02;;;;;;;6.80;1.30;;;11.80;99.90;;;;;;5161606;27;20031;-81
2022/12/31 01:28:29;;;;;;;0.15;0.10;;;11.80;99.90;;;;;;5162380;27;20042;-81
2022/12/31 01:30:55;;;;;;;0.25;0.20;;;11.80;99.90;;;;;;5161514;27;20075;-81
2022/12/31 01:33:20;;;;;;;0.35;0.35;;;11.90;99.90;;;;;;5161777;27;20034;-81
2022/12/31 01:35:46;;;;;;;1.77;0.45;;;11.80;99.90;;;;;;5162108;27;20512;-80
2022/12/31 01:38:11;;;;;;;0.00;0.00;;;11.90;99.90;;;;;;5161162;27;20038;-81
2022/12/31 01:40:38;;;;;;;0.00;0.00;;;11.90;99.90;;;;;;5160272;27;20385;-81
2022/12/31 01:43:16;;;;;;;0.03;0.03;;;11.90;99.90;;;;;;5161833;27;20119;-81
2022/12/31 01:45:46;;;;;;;0.08;0.03;;;11.90;99.90;;;;;;5161279;27;20042;-81
2022/12/31 01:48:16;;;;;;;0.47;0.47;;;11.90;99.90;;;;;;5160717;27;20042;-81
2022/12/31 01:50:45;;;;;;;0.47;0.40;;;11.90;99.90;;;;;;5161496;27;20516;-81
2022/12/31 01:53:11;;;;;;;0.20;0.20;;;12.00;99.90;;;;;;5161627;27;20049;-80
2022/12/31 01:55:52;;;;;;;0.35;0.35;;;11.90;99.90;;;;;;5160709;27;20030;-80
2022/12/31 01:58:24;;;;;;;0.00;0.00;;;11.90;99.90;;;;;;5159930;27;20039;-80
2022/12/31 02:00:51;;;;;;;0.70;0.45;;;11.90;99.90;;;;;;5160526;27;20509;-81
2022/12/31 02:03:18;;;;;;;0.13;0.13;;;11.90;99.90;;;;;;5159843;27;20054;-80
2022/12/31 02:05:57;;;;;;;0.38;0.38;;;11.90;99.90;;;;;;5163167;27;20047;-80
2022/12/31 02:08:22;;;;;;;0.30;0.30;;;11.90;99.90;;;;;;5164498;27;20050;-80
2022/12/31 02:10:48;;;;;;;0.08;0.08;;;11.90;99.90;;;;;;5164725;27;20031;-80
2022/12/31 02:13:14;;;;;;;0.00;0.00;;;11.90;99.90;;;;;;5165015;27;20489;-80
2022/12/31 02:15:57;;;;;;;0.00;0.00;;;11.80;99.90;;;;;;5164895;27;20055;-80
2022/12/31 02:18:44;;;;;;;0.20;0.15;;;11.70;99.90;;;;;;5144722;27;20091;-80
2022/12/31 02:21:41;;;;;;;0.00;0.00;;;11.70;99.90;;;;;;5144157;27;20547;-81
2022/12/31 02:24:06;;;;;;;0.32;0.32;;;11.60;99.90;;;;;;5144221;27;20042;-80
2022/12/31 02:26:53;;;;;;;1.10;1.02;;;11.60;99.90;;;;;;5149938;27;20123;-80
2022/12/31 02:29:34;;;;;;;0.43;0.43;;;11.50;99.90;;;;;;5164080;27;22303;-80
2022/12/31 02:32:06;;;;;;;0.00;0.00;;;11.40;99.90;;;;;;5165199;27;20034;-81
2022/12/31 02:34:46;;;;;;;0.00;0.00;;;11.40;99.90;;;;;;5166358;27;20046;-80
2022/12/31 02:37:14;;;;;;;0.17;0.10;;;11.30;99.90;;;;;;5165049;27;20049;-81
2022/12/31 02:39:42;;;;;;;0.30;0.30;;;11.30;99.90;;;;;;5164521;27;20043;-81
2022/12/31 02:42:09;;;;;;;0.22;0.20;;;11.30;99.90;;;;;;5164530;27;20039;-81
2022/12/31 02:44:36;;;;;;;0.05;0.05;;;11.90;99.90;;;;;;5164465;27;20045;-80
2022/12/31 02:47:08;;;;;;;0.00;0.00;;;11.30;99.90;;;;;;5164083;27;20054;-81
2022/12/31 02:49:56;;;;;;;0.15;0.15;;;11.20;99.90;;;;;;5164814;27;20031;-80
2022/12/31 02:52:42;;;;;;;0.00;0.00;;;11.30;99.90;;;;;;5164160;27;20370;-81
2022/12/31 02:55:31;;;;;;;0.00;0.00;;;11.20;99.90;;;;;;5164336;27;20163;-81
2022/12/31 03:02:12;;;;;;;0.00;0.00;;;11.10;99.90;;;;;;5163791;27;20138;-80
2022/12/31 03:04:30;;;;;;;0.10;0.00;;;11.10;99.90;;;;;;5151304;27;20053;-80
2022/12/31 03:06:41;;;;;;;0.08;0.08;;;11.00;99.90;;;;;;5163315;27;20103;-80
2022/12/31 03:09:13;;;;;;;0.00;0.00;;;11.00;99.90;;;;;;5164336;27;20038;-80
2022/12/31 03:14:23;;;;;;;1.02;0.20;;;11.00;99.90;;;;;;5164115;27;20111;-80
2022/12/31 03:16:49;;;;;;;0.00;0.00;;;10.90;99.90;;;;;;5162970;27;20086;-81
2022/12/31 03:27:27;;;;;;;0.00;0.00;;;10.80;99.90;;;;;;5163392;27;20070;-80
2022/12/31 03:29:53;;;;;;;0.00;0.00;;;10.80;99.90;;;;;;5163271;27;20481;-80
2022/12/31 03:32:18;;;;;;;0.00;0.00;;;10.80;99.90;;;;;;5162616;27;20060;-81
2022/12/31 03:34:44;;;;;;;2.85;0.98;;;10.80;99.90;;;;;;5163643;27;20035;-79
2022/12/31 03:37:09;;;;;;;0.00;0.00;;;10.70;99.90;;;;;;5163542;27;20035;-80
2022/12/31 03:39:35;;;;;;;0.10;0.10;;;10.70;99.90;;;;;;5163178;27;20165;-80
2022/12/31 03:42:01;;;;;;;0.20;0.20;;;10.70;99.90;;;;;;5162702;27;20078;-79
2022/12/31 03:44:26;;;;;;;0.35;0.25;;;10.70;99.90;;;;;;5163058;27;20506;-80
2022/12/31 03:46:52;;;;;;;0.65;0.65;;;10.60;99.90;;;;;;5163839;27;20106;-80
2022/12/31 03:49:17;;;;;;;0.00;0.00;;;10.60;99.90;;;;;;5163299;27;20050;-81
2022/12/31 03:51:43;;;;;;;0.00;0.00;;;10.60;99.90;;;;;;5163110;27;20082;-80
2022/12/31 03:54:08;;;;;;;6.22;1.40;;;10.70;99.90;;;;;;5162890;27;20122;-80
2022/12/31 03:56:34;;;;;;;0.00;0.00;;;10.60;99.90;;;;;;5161997;27;20038;-80
2022/12/31 03:58:59;;;;;;;0.10;0.10;;;10.70;99.90;;;;;;5162229;27;20034;-80
2022/12/31 04:01:25;;;;;;;2.30;1.58;;;10.70;99.90;;;;;;5162700;27;20038;-81
2022/12/31 04:03:50;;;;;;;0.00;0.00;;;10.60;99.90;;;;;;5162993;27;20433;-79
2022/12/31 04:06:16;;;;;;;0.00;0.00;;;10.50;99.90;;;;;;5162679;27;20046;-80
2022/12/31 04:08:42;;;;;;;0.00;0.00;;;10.50;99.90;;;;;;5163043;27;20066;-80
2022/12/31 04:11:07;;;;;;;0.00;0.00;;;10.50;99.90;;;;;;5162653;27;20034;-80
2022/12/31 04:13:33;;;;;;;0.00;0.00;;;10.50;99.90;;;;;;5162405;27;20035;-81
2022/12/31 04:15:58;;;;;;;0.00;0.00;;;10.50;99.90;;;;;;5162923;27;20043;-80
2022/12/31 04:18:24;;;;;;;0.00;0.00;;;11.00;99.90;;;;;;5162687;27;20066;-80
2022/12/31 04:20:49;;;;;;;0.00;0.00;;;10.40;99.90;;;;;;5162305;27;20050;-80
2022/12/31 04:23:15;;;;;;;0.00;0.00;;;10.40;99.90;;;;;;5161960;27;20045;-82
2022/12/31 04:25:41;;;;;;;0.00;0.00;;;10.50;99.90;;;;;;5162248;27;20117;-80
2022/12/31 04:28:06;;;;;;;0.13;0.13;;;10.50;99.90;;;;;;5161070;27;20031;-80
2022/12/31 04:30:32;;;;;;;0.13;0.13;;;10.70;99.90;;;;;;5161731;27;20042;-80
2022/12/31 04:32:58;;;;;;;0.00;0.00;;;10.60;99.90;;;;;;5161855;27;20073;-80
2022/12/31 04:35:23;;;;;;;0.25;0.22;;;10.60;99.90;;;;;;5162222;27;20049;-81
2022/12/31 04:37:49;;;;;;;0.93;0.10;;;10.50;99.90;;;;;;5160477;27;20035;-80
2022/12/31 04:40:14;;;;;;;0.00;0.00;;;10.50;99.90;;;;;;5159779;27;20046;-79
2022/12/31 04:42:40;;;;;;;0.00;0.00;;;10.50;99.90;;;;;;5159239;27;20042;-80
2022/12/31 04:45:06;;;;;;;0.20;0.15;;;10.50;99.90;;;;;;5159245;27;20410;-79
2022/12/31 04:47:32;;;;;;;0.00;0.00;;;10.60;99.90;;;;;;5158712;27;20059;-79
2022/12/31 04:49:57;;;;;;;0.38;0.20;;;10.50;99.90;;;;;;5158127;27;20053;-79
2022/12/31 04:52:23;;;;;;;0.00;0.00;;;10.50;99.90;;;;;;5158127;27;20095;-79
2022/12/31 04:54:48;;;;;;;0.10;0.10;;;10.50;99.90;;;;;;5158898;27;20039;-79
2022/12/31 04:57:14;;;;;;;0.95;0.28;;;10.50;99.90;;;;;;5158277;27;20084;-79
2022/12/31 04:59:40;;;;;;;0.00;0.00;;;10.50;99.90;;;;;;5159105;27;20103;-80
2022/12/31 05:02:05;;;;;;;0.15;0.10;;;10.50;99.90;;;;;;5158555;27;20042;-79
2022/12/31 05:04:31;;;;;;;0.25;0.25;;;10.50;99.90;;;;;;5158705;27;20064;-80
2022/12/31 05:06:57;;;;;;;0.13;0.10;;;10.50;99.90;;;;;;5158526;27;20042;-79
2022/12/31 05:09:26;;;;;;;0.00;0.00;;;10.50;99.90;;;;;;5158042;27;20485;-79
2022/12/31 05:11:51;;;;;;;3.50;0.30;;;10.50;99.90;;;;;;5158459;27;20374;-78
2022/12/31 05:14:17;;;;;;;0.22;0.13;;;10.60;99.90;;;;;;5158752;27;20035;-79
2022/12/31 05:16:43;;;;;;;1.75;0.20;;;10.60;99.90;;;;;;5158235;27;20039;-79
2022/12/31 05:19:08;;;;;;;0.08;0.08;;;10.50;99.90;;;;;;5157752;27;20035;-79
2022/12/31 05:21:34;;;;;;;0.20;0.20;;;10.60;99.90;;;;;;5157940;27;20043;-79
2022/12/31 05:24:00;;;;;;;0.10;0.10;;;10.50;99.90;;;;;;5157652;27;20038;-79
2022/12/31 05:26:26;;;;;;;0.73;0.40;;;10.50;99.90;;;;;;5157996;27;20046;-79
2022/12/31 05:28:51;;;;;;;0.45;0.13;;;11.20;99.90;;;;;;5157991;27;20129;-79
2022/12/31 05:31:17;;;;;;;0.00;0.00;;;10.80;99.90;;;;;;5139106;27;20045;-80
2022/12/31 05:33:42;;;;;;;0.00;0.00;;;10.50;99.90;;;;;;5157053;27;20042;-80
2022/12/31 05:36:08;;;;;;;1.88;0.28;;;10.60;99.90;;;;;;5162473;27;20071;-79
2022/12/31 05:38:34;;;;;;;0.00;0.00;;;10.60;99.90;;;;;;5143952;27;20121;-79
2022/12/31 05:41:04;;;;;;;0.20;0.10;;;10.60;99.90;;;;;;5158089;27;20041;-79
2022/12/31 05:43:30;;;;;;;0.00;0.00;;;10.60;99.90;;;;;;5139653;27;20059;-79
2022/12/31 05:45:58;;;;;;;0.00;0.00;;;10.60;99.90;;;;;;5158331;27;20042;-79
2022/12/31 05:48:24;;;;;;;0.00;0.00;;;10.60;99.90;;;;;;5157717;27;20081;-79
2022/12/31 05:50:49;;;;;;;0.00;0.00;;;10.60;99.90;;;;;;5139954;27;20043;-79
2022/12/31 05:53:15;;;;;;;0.00;0.00;;;10.60;99.90;;;;;;5157428;27;20047;-79
2022/12/31 05:55:41;;;;;;;0.10;0.10;;;10.60;99.90;;;;;;5158620;27;20030;-79
2022/12/31 05:58:06;;;;;;;0.00;0.00;;;10.60;99.90;;;;;;5158384;27;20066;-79
2022/12/31 06:00:32;;;;;;;0.10;0.10;;;10.70;99.90;;;;;;5158893;27;20038;-80
2022/12/31 06:02:57;;;;;;;0.00;0.00;;;10.80;99.90;;;;;;5159372;27;20434;-80
2022/12/31 06:05:23;;;;;;;0.00;0.00;;;10.80;99.90;;;;;;5160558;27;20042;-80
2022/12/31 06:07:48;;;;;;;0.00;0.00;;;10.80;99.90;;;;;;5159383;27;20062;-80
2022/12/31 06:10:14;;;;;;;0.20;0.15;;;11.50;99.90;;;;;;5159318;27;20084;-79
2022/12/31 06:12:39;;;;;;;0.10;0.10;;;10.90;99.90;;;;;;5158360;27;20057;-79
2022/12/31 06:15:06;;;;;;;1.10;0.38;;;10.80;99.90;;;;;;5159207;27;20035;-80
2022/12/31 06:17:31;;;;;;;0.08;0.08;;;10.80;99.90;;;;;;5158127;27;20081;-79
2022/12/31 06:19:58;;;;;;;0.47;0.28;;;10.80;99.90;;;;;;5158782;27;20046;-79
2022/12/31 06:22:24;;;;;;;0.00;0.00;;;10.80;99.90;;;;;;5157912;27;20046;-79
2022/12/31 06:24:49;;;;;;;0.00;0.00;;;10.80;99.90;;;;;;5158712;27;20042;-79
2022/12/31 06:27:15;;;;;;;22.67;0.95;;;10.80;99.90;;;;;;5157763;27;20034;-79
2022/12/31 06:29:40;;;;;;;0.08;0.08;;;10.70;99.90;;;;;;5157435;27;20039;-79
2022/12/31 06:32:06;;;;;;;0.00;0.00;;;10.80;99.90;;;;;;5157185;27;20051;-79
2022/12/31 06:34:32;;;;;;;0.10;0.10;;;10.70;99.90;;;;;;5157332;27;20071;-79
2022/12/31 06:36:58;;;;;;;0.88;0.60;;;10.80;99.90;;;;;;5156567;27;20089;-80
2022/12/31 06:39:24;;;;;;;0.00;0.00;;;10.80;99.90;;;;;;5157486;27;20035;-79
2022/12/31 06:41:50;;;;;;;0.10;0.10;;;10.80;99.90;;;;;;5157195;27;20046;-79
2022/12/31 06:44:15;;;;;;;0.25;0.25;;;10.80;99.90;;;;;;5157296;27;20039;-80
2022/12/31 06:46:41;;;;;;;0.20;0.20;;;10.70;99.90;;;;;;5158324;27;20063;-79
2022/12/31 06:49:06;;;;;;;0.00;0.00;;;10.80;99.90;;;;;;5158773;27;20411;-79
2022/12/31 06:51:32;;;;;;;0.00;0.00;;;10.70;99.90;;;;;;5159579;27;20035;-79
2022/12/31 06:53:58;;;;;;;0.00;0.00;;;11.00;99.90;;;;;;5162710;27;20051;-80
2022/12/31 06:56:27;;;;;;;0.00;0.00;;;11.20;99.90;;;;;;5164550;27;20046;-80
2022/12/31 06:58:53;;;;;;;0.30;0.30;;;10.60;99.90;;;;;;5162151;27;20042;-79
2022/12/31 07:01:29;;;;;;;0.00;0.00;;;10.60;99.90;;;;;;5160086;27;20058;-80
2022/12/31 07:04:48;;;;;;;0.00;0.00;;;10.60;99.90;;;;;;5159978;27;20038;-79
2022/12/31 07:07:32;;;;;;;0.00;0.00;;;10.50;99.90;;;;;;5054982;28;20044;-79
2022/12/31 07:10:06;;;;;;;1.20;0.70;;;10.50;99.90;;;;;;5159452;27;20046;-78
2022/12/31 07:12:47;;;;;;;0.10;0.10;;;10.50;99.90;;;;;;5160325;27;20041;-79
2022/12/31 07:15:34;;;;;;;0.00;0.00;;;10.40;99.90;;;;;;5162112;27;20054;-81
2022/12/31 07:18:22;;;;;;;0.05;0.05;;;10.50;99.90;;;;;;5163406;27;20106;-80
2022/12/31 07:20:48;;;;;;;1.45;0.22;;;10.50;99.90;;;;;;5163036;27;20087;-80
2022/12/31 07:23:14;;;;;;;0.00;0.00;;;10.40;99.90;;;;;;5162623;27;20049;-80
2022/12/31 07:25:50;;;;;;;2.90;0.70;;;10.40;99.90;;;;;;5144550;27;20039;-80
2022/12/31 07:28:30;;;;;;;0.00;0.00;;;10.50;99.90;;;;;;5163338;27;20039;-80
2022/12/31 07:30:56;;;;;;;0.00;0.00;;;10.40;99.90;;;;;;5162833;27;20042;-81
2022/12/31 07:33:21;;;;;;;0.00;0.00;;;10.40;99.90;;;;;;5163127;27;20453;-82
2022/12/31 07:36:17;;;;;;;0.00;0.00;;;10.40;99.90;;;;;;5162066;27;20078;-81
2022/12/31 07:38:51;;;;;;;0.00;0.00;;;10.40;99.90;;;;;;5161955;27;20047;-81
2022/12/31 07:41:42;;;;;;;0.00;0.00;;;10.40;99.90;;;;;;5161250;27;20114;-81
2022/12/31 07:44:10;;;;;;;0.00;0.00;;;10.40;99.90;;;;;;5162268;27;20042;-81
2022/12/31 07:46:53;;;;;;;0.00;0.00;;;10.40;99.90;;;;;;5161554;27;20047;-81
2022/12/31 07:49:18;;;;;;;0.32;0.10;;;10.40;99.90;;;;;;5140882;27;20387;-81
2022/12/31 07:51:44;;;;;;;0.65;0.52;;;10.40;99.90;;;;;;5141016;27;20108;-81
2022/12/31 07:54:10;;;;;;;0.00;0.00;;;10.40;99.90;;;;;;5156680;27;20039;-81
2022/12/31 07:56:36;;;;;;;0.00;0.00;;;10.40;99.90;;;;;;5161203;27;20401;-81
2022/12/31 07:59:13;;;;;;;0.00;0.00;;;10.40;99.90;;;;;;5161586;27;20038;-81
2022/12/31 08:01:43;;;;;;;0.00;0.00;;;10.50;99.90;;;;;;5161521;27;20103;-81
2022/12/31 08:04:23;;;;;;;0.08;0.08;;;10.40;99.90;;;;;;5158206;27;20501;-81
2022/12/31 08:06:57;;;;;;;0.00;0.00;;;10.50;99.90;;;;;;5158348;27;20049;-81
2022/12/31 08:09:48;;;;;;;0.00;0.00;;;10.50;99.90;;;;;;5158441;27;20139;-81
2022/12/31 08:12:14;;;;;;;0.00;0.00;;;10.50;99.90;;;;;;5157561;27;20039;-81
2022/12/31 08:14:46;;;;;;;0.00;0.00;;;10.60;99.90;;;;;;5140556;27;20039;-81
2022/12/31 08:17:16;;;;;;;0.00;0.00;;;10.60;99.90;;;;;;5158644;27;20046;-81
2022/12/31 08:19:44;;;;;;;0.00;0.00;;;10.60;99.90;;;;;;5158326;27;20050;-81
2022/12/31 08:22:31;;;;;;;0.00;0.00;;;10.60;99.90;;;;;;5158197;27;20039;-81
2022/12/31 08:25:02;;;;;;;0.00;0.00;;;10.60;99.90;;;;;;5159500;27;20401;-80
2022/12/31 08:27:28;;;;;;;0.00;0.00;;;10.70;99.90;;;;;;5160359;27;20071;-80
2022/12/31 08:30:14;;;;;;;0.00;0.00;;;10.70;99.90;;;;;;5160595;27;20057;-81
2022/12/31 08:33:16;;;;;;;0.00;0.00;;;10.70;99.90;;;;;;5160106;27;20080;-81
2022/12/31 08:36:16;;;;;;;0.00;0.00;;;10.80;99.90;;;;;;5160311;27;20294;-80
2022/12/31 08:39:05;;;;;;;0.00;0.00;;;10.90;99.90;;;;;;5160693;27;20042;-80
2022/12/31 08:41:36;;;;;;;0.00;0.00;;;11.00;99.90;;;;;;5156880;27;20046;-80
2022/12/31 08:44:22;;;;;;;0.00;0.00;;;10.90;99.90;;;;;;5140592;27;20043;-80
2022/12/31 08:47:09;;;;;;;0.00;0.00;;;11.00;99.90;;;;;;5158121;27;20046;-80
2022/12/31 08:49:35;;;;;;;0.00;0.00;;;11.00;99.90;;;;;;5137337;27;20401;-80
2022/12/31 08:52:01;;;;;;;0.00;0.00;;;11.10;99.90;;;;;;5137654;27;20046;-81
2022/12/31 08:54:28;;;;;;;0.00;0.00;;;11.10;99.90;;;;;;5148364;27;20054;-81
2022/12/31 08:56:56;;;;;;;0.00;0.00;;;11.10;99.90;;;;;;5159234;27;20035;-81
2022/12/31 08:59:34;;;;;;;0.00;0.00;;;11.20;99.90;;;;;;5158358;27;20065;-80
2022/12/31 09:02:28;;;;;;;0.00;0.00;;;11.30;99.90;;;;;;5158582;27;20517;-80
2022/12/31 09:05:18;;;;;;;0.00;0.00;;;11.30;99.90;;;;;;5158853;27;20053;-81
2022/12/31 09:08:12;;;;;;;0.00;0.00;;;11.30;99.90;;;;;;5158740;27;20050;-80
2022/12/31 09:10:56;;;;;;;0.00;0.00;;;11.40;99.90;;;;;;5158027;27;20115;-80
2022/12/31 09:13:52;;;;;;;4.30;0.47;;;11.50;99.90;;;;;;5157954;27;20043;-80
2022/12/31 09:16:50;;;;;;;0.35;0.10;;;11.60;99.90;;;;;;5158235;27;20408;-80
2022/12/31 09:19:16;;;;;;;0.00;0.00;;;11.70;99.90;;;;;;5119451;27;20051;-80
2022/12/31 09:21:43;;;;;;;0.13;0.10;;;11.80;99.90;;;;;;5137281;27;20227;-80
2022/12/31 09:24:12;;;;;;;0.00;0.00;;;11.90;99.90;;;;;;5142086;27;20053;-81
2022/12/31 09:27:05;;;;;;;0.00;0.00;;;11.90;99.90;;;;;;5158178;27;20047;-80
2022/12/31 09:29:53;;;;;;;0.00;0.00;;;12.00;99.90;;;;;;5158635;27;20414;-80
2022/12/31 09:32:35;;;;;;;0.00;0.00;;;12.00;99.90;;;;;;5157713;27;20043;-80
2022/12/31 09:35:19;;;;;;;0.00;0.00;;;12.00;99.90;;;;;;5157748;27;20098;-80
2022/12/31 09:37:48;;;;;;;0.10;0.10;;;12.10;99.90;;;;;;5157880;27;20061;-80
2022/12/31 09:41:10;;;;;;;0.00;0.00;;;12.10;99.90;;;;;;5158214;27;20047;-80
2022/12/31 09:43:57;;;;;;;0.00;0.00;;;12.10;99.90;;;;;;5053850;28;20084;-80
2022/12/31 09:46:47;;;;;;;0.00;0.00;;;12.20;99.90;;;;;;5157991;27;20043;-81
2022/12/31 09:49:24;;;;;;;0.00;0.00;;;12.20;99.90;;;;;;5157884;27;20050;-80
2022/12/31 09:52:01;;;;;;;0.10;0.10;;;12.30;99.90;;;;;;5158072;27;20046;-80
2022/12/31 09:54:52;;;;;;;0.00;0.00;;;12.60;99.90;;;;;;5158032;27;20449;-81
2022/12/31 09:57:39;;;;;;;0.25;0.20;;;12.30;99.90;;;;;;5144835;27;20049;-81
2022/12/31 10:00:08;;;;;;;0.10;0.10;;;12.30;99.90;;;;;;5157922;27;20046;-81
2022/12/31 10:02:52;;;;;;;0.00;0.00;;;12.40;99.90;;;;;;5158342;27;20075;-80
2022/12/31 10:05:29;;;;;;;0.00;0.00;;;12.50;99.90;;;;;;5157491;27;20046;-81
2022/12/31 10:08:18;;;;;;;0.00;0.00;;;12.50;99.90;;;;;;5157650;27;20397;-81
2022/12/31 10:10:55;;;;;;;0.00;0.00;;;12.60;99.90;;;;;;5157933;27;20451;-81
2022/12/31 10:13:29;;;;;;;0.35;0.25;;;12.60;99.90;;;;;;5157610;27;20736;-81
2022/12/31 10:16:23;;;;;;;0.00;0.00;;;12.60;99.90;;;;;;5155237;27;20054;-81
2022/12/31 10:19:24;;;;;;;0.00;0.00;;;12.60;99.90;;;;;;5156795;27;20047;-81
2022/12/31 10:22:17;;;;;;;0.00;0.00;;;12.60;99.90;;;;;;5156839;27;20047;-81
2022/12/31 10:24:53;;;;;;;0.00;0.00;;;12.70;99.90;;;;;;5150122;27;20715;-81
2022/12/31 10:27:28;;;;;;;0.00;0.00;;;13.10;99.90;;;;;;5134268;27;20104;-81
2022/12/31 10:29:58;;;;;;;0.00;0.00;;;12.70;99.90;;;;;;5140572;27;20043;-81
2022/12/31 10:32:35;;;;;;;0.00;0.00;;;12.80;99.90;;;;;;5139645;27;20043;-81
2022/12/31 10:35:26;;;;;;;0.00;0.00;;;12.90;99.90;;;;;;5140938;27;20043;-81
2022/12/31 10:38:09;;;;;;;0.00;0.00;;;12.90;99.90;;;;;;5093938;28;59625;-81
2022/12/31 10:41:12;;;;;;;0.00;0.00;;;12.90;99.90;;;;;;5097107;28;20048;-81
2022/12/31 10:44:08;;;;;;;0.00;0.00;;;13.00;99.90;;;;;;5080109;28;20048;-81
2022/12/31 10:46:51;;;;;;;0.35;0.10;;;13.10;99.90;;;;;;5080055;28;20076;-81
2022/12/31 10:50:00;;;;;;;0.10;0.10;;;13.10;99.90;;;;;;5099647;28;20101;-81
2022/12/31 10:52:44;;;;;;;0.63;0.15;;;13.20;99.90;;;;;;5016934;28;20052;-80
2022/12/31 10:55:25;;;;;;;0.00;0.00;;;13.20;99.90;;;;;;5097949;28;20063;-81
2022/12/31 10:57:57;;;;;;;0.00;0.00;;;13.30;99.90;;;;;;5099085;28;20104;-81
2022/12/31 11:00:25;;;;;;;0.57;0.13;;;13.30;99.90;;;;;;5099761;28;20109;-81
2022/12/31 11:03:17;;;;;;;0.15;0.15;;;13.40;99.90;;;;;;5098517;28;20055;-81
2022/12/31 11:06:21;;;;;;;0.08;0.08;;;13.40;99.90;;;;;;5099648;28;20048;-82
2022/12/31 11:08:59;;;;;;;0.00;0.00;;;13.40;99.90;;;;;;5097777;28;20071;-81
2022/12/31 11:11:52;;;;;;;0.08;0.08;;;13.60;99.90;;;;;;5099042;28;20040;-81
2022/12/31 11:14:36;;;;;;;0.88;0.40;;;13.30;99.90;;;;;;5098778;28;20531;-80
2022/12/31 11:17:02;;;;;;;0.00;0.00;;;13.40;99.90;;;;;;5099470;28;20056;-81
2022/12/31 11:19:45;;;;;;;2.05;0.57;;;13.40;99.90;;;;;;5098250;28;20492;-81
2022/12/31 11:22:26;;;;;;;0.00;0.00;;;13.50;99.90;;;;;;5098730;28;20052;-81
2022/12/31 11:24:51;;;;;;;0.10;0.10;;;13.50;99.90;;;;;;5098676;28;20406;-80
2022/12/31 11:27:45;;;;;;;0.03;0.03;;;13.60;99.90;;;;;;5098892;28;20044;-80
2022/12/31 11:30:44;;;;;;;0.00;0.00;;;13.60;99.90;;;;;;5098753;28;20102;-81
2022/12/31 11:33:23;;;;;;;0.00;0.00;;;13.70;99.90;;;;;;5097858;28;20054;-80
2022/12/31 11:36:13;;;;;;;0.00;0.00;;;13.70;99.90;;;;;;5098150;28;20109;-80
2022/12/31 11:39:23;;;;;;;0.10;0.10;;;13.60;99.90;;;;;;5097433;28;20080;-81
2022/12/31 11:41:53;;;;;;;0.00;0.00;;;13.50;99.90;;;;;;5086757;28;20048;-81
2022/12/31 11:44:47;;;;;;;0.52;0.52;;;13.40;99.90;;;;;;5098370;28;20155;-81
2022/12/31 11:47:37;;;;;;;0.00;0.00;;;13.40;99.90;;;;;;5086947;28;20052;-81
2022/12/31 11:50:08;;;;;;;1.08;0.63;;;13.50;99.90;;;;;;5098453;28;20079;-81
2022/12/31 11:52:55;;;;;;;1.55;0.10;;;13.80;99.90;;;;;;5097341;28;20099;-81
2022/12/31 11:55:29;;;;;;;0.03;0.03;;;13.60;99.90;;;;;;5097485;28;20580;-81
2022/12/31 11:58:00;;;;;;;0.00;0.00;;;13.50;99.90;;;;;;5100144;28;20043;-81
2022/12/31 12:00:28;;;;;;;0.00;0.00;;;13.40;99.90;;;;;;5098735;28;20422;-81
2022/12/31 12:03:02;;;;;;;0.17;0.17;;;13.40;99.90;;;;;;5100465;28;20036;-81
2022/12/31 12:05:28;;;;;;;0.00;0.00;;;13.30;99.90;;;;;;5101377;28;20101;-81
2022/12/31 12:07:54;;;;;;;0.30;0.10;;;13.40;99.90;;;;;;5098093;28;20081;-80
2022/12/31 12:10:25;;;;;;;0.00;0.00;;;13.40;99.90;;;;;;5098349;28;20041;-81
2022/12/31 12:12:52;;;;;;;0.00;0.00;;;13.50;99.90;;;;;;5099194;28;20068;-81
2022/12/31 12:15:28;;;;;;;0.00;0.00;;;13.40;99.90;;;;;;5098994;28;20044;-82
2022/12/31 12:17:57;;;;;;;0.00;0.00;;;13.50;99.90;;;;;;5098720;28;20071;-82
2022/12/31 12:20:32;;;;;;;0.00;0.00;;;13.40;99.90;;;;;;5099297;28;20039;-81
2022/12/31 12:22:59;;;;;;;0.00;0.00;;;13.30;99.90;;;;;;5100123;28;20036;-81
2022/12/31 12:25:38;;;;;;;0.30;0.22;;;13.70;99.90;;;;;;5100626;28;20104;-80
2022/12/31 12:28:26;;;;;;;2.53;1.67;;;13.40;99.90;;;;;;5093505;28;20052;-80
2022/12/31 12:30:54;;;;;;;0.43;0.15;;;13.30;99.90;;;;;;5080316;28;20503;-80
2022/12/31 12:33:21;;;;;;;3.78;2.10;;;13.30;99.90;;;;;;5080286;28;20056;-80
2022/12/31 12:35:47;;;;;;;0.45;0.45;;;13.30;99.90;;;;;;5080074;28;20047;-80
2022/12/31 12:38:19;;;;;;;1.05;0.88;;;13.40;99.90;;;;;;5084887;28;20135;-80
2022/12/31 12:40:55;;;;;;;0.32;0.20;;;13.40;99.90;;;;;;5095865;28;20510;-81
2022/12/31 12:43:25;;;;;;;0.30;0.25;;;13.40;99.90;;;;;;5097398;28;20059;-80
2022/12/31 12:45:51;;;;;;;0.55;0.30;;;13.40;99.90;;;;;;5097067;28;20044;-80
2022/12/31 12:48:43;;;;;;;0.20;0.13;;;13.40;99.90;;;;;;5096341;28;20495;-80
2022/12/31 12:51:20;;;;;;;0.00;0.00;;;13.40;99.90;;;;;;5086190;28;20062;-81
2022/12/31 12:53:52;;;;;;;0.00;0.00;;;13.40;99.90;;;;;;5097897;28;20072;-81
2022/12/31 12:56:39;;;;;;;0.17;0.17;;;13.50;99.90;;;;;;5097423;28;20614;-80
2022/12/31 12:59:28;;;;;;;;;;;13.50;99.90;;;;;;5097841;28;20143;-82
2022/12/31 13:01:57;;;;;;;0.00;0.00;;;13.50;99.90;;;;;;5097558;28;19931;-81
2022/12/31 13:04:57;;;;;;;0.70;0.50;;;13.40;99.90;;;;;;5100770;28;20101;-80
2022/12/31 13:07:36;;;;;;;0.75;0.68;;;13.40;99.90;;;;;;5099280;28;20127;-80
2022/12/31 13:10:25;;;;;;;0.40;0.40;;;13.40;99.90;;;;;;5099824;28;20043;-80
2022/12/31 13:13:28;;;;;;;12.40;0.85;;;13.40;99.90;;;;;;5100619;28;20036;-80
2022/12/31 13:16:02;;;;;;;0.52;0.32;;;13.40;99.90;;;;;;5101059;28;20700;-80
2022/12/31 13:18:31;;;;;;;1.98;0.43;;;14.00;99.90;;;;;;5101802;28;20048;-80
2022/12/31 13:21:31;;;;;;;0.00;0.00;;;14.10;99.90;;;;;;5100087;28;20097;-80
2022/12/31 13:24:05;;;;;;;2.72;0.70;;;13.20;99.90;;;;;;5085529;28;20055;-81
2022/12/31 13:26:40;;;;;;;1.13;0.77;;;13.20;99.90;;;;;;5100273;28;20057;-80
2022/12/31 13:29:14;;;;;;;0.47;0.28;;;13.10;99.90;;;;;;5101076;28;20044;-80
2022/12/31 13:31:41;;;;;;;0.03;0.03;;;13.10;99.90;;;;;;5100992;28;20077;-81
2022/12/31 13:34:13;;;;;;;0.95;0.40;;;13.00;99.90;;;;;;5099786;28;20502;-81
2022/12/31 13:36:41;;;;;;;0.63;0.55;;;12.90;99.90;;;;;;5100663;28;20089;-81
2022/12/31 13:39:17;;;;;;;0.00;0.00;;;12.90;99.90;;;;;;5100529;28;20503;-81